sensor_id;sensor_type;location;lat;lon;timestamp;pressure;altitude;pressure_sealevel;temperature;humidity
29903;BME280;30288;50.514;9.678;2024-03-17T00:00:32;99480.97;;;3.93;100.00
29903;BME280;30288;50.514;9.678;2024-03-17T00:02:37;99479.22;;;3.86;100.00
29903;BME280;30288;50.514;9.678;2024-03-17T00:04:38;99480.13;;;3.89;100.00
29903;BME280;30288;50.514;9.678;2024-03-17T00:06:45;99493.97;;;3.68;100.00
29903;BME280;30288;50.514;9.678;2024-03-17T00:08:51;99492.16;;;3.55;100.00
29903;BME280;30288;50.514;9.678;2024-03-17T00:10:59;99490.47;;;3.53;100.00
29903;BME280;30288;50.514;9.678;2024-03-17T00:13:00;99488.06;;;3.60;100.00
29903;BME280;30288;50.514;9.678;2024-03-17T00:15:06;99483.03;;;3.55;100.00
29903;BME280;30288;50.514;9.678;2024-03-17T00:17:09;99488.75;;;3.46;100.00
29903;BME280;30288;50.514;9.678;2024-03-17T00:19:15;99487.06;;;3.45;100.00
29903;BME280;30288;50.514;9.678;2024-03-17T00:21:19;99487.84;;;3.41;100.00
29903;BME280;30288;50.514;9.678;2024-03-17T00:23:23;99495.31;;;3.41;100.00
29903;BME280;30288;50.514;9.678;2024-03-17T00:25:25;99488.75;;;3.46;100.00
29903;BME280;30288;50.514;9.678;2024-03-17T00:27:36;99483.78;;;3.49;100.00
29903;BME280;30288;50.514;9.678;2024-03-17T00:29:41;99492.06;;;3.48;100.00
29903;BME280;30288;50.514;9.678;2024-03-17T00:31:45;99488.47;;;3.25;100.00
29903;BME280;30288;50.514;9.678;2024-03-17T00:33:46;99485.88;;;3.19;100.00
29903;BME280;30288;50.514;9.678;2024-03-17T00:35:51;99485.03;;;3.17;100.00
29903;BME280;30288;50.514;9.678;2024-03-17T00:37:53;99498.19;;;3.10;100.00
29903;BME280;30288;50.514;9.678;2024-03-17T00:39:57;99494.13;;;3.14;100.00
29903;BME280;30288;50.514;9.678;2024-03-17T00:41:58;99498.16;;;3.07;100.00
29903;BME280;30288;50.514;9.678;2024-03-17T00:44:07;99496.31;;;2.94;100.00
29903;BME280;30288;50.514;9.678;2024-03-17T00:46:12;99485.34;;;2.80;100.00
29903;BME280;30288;50.514;9.678;2024-03-17T00:48:18;99490.91;;;2.67;100.00
29903;BME280;30288;50.514;9.678;2024-03-17T00:50:20;99491.72;;;2.64;100.00
29903;BME280;30288;50.514;9.678;2024-03-17T00:52:24;99494.38;;;2.75;100.00
29903;BME280;30288;50.514;9.678;2024-03-17T00:54:26;99488.72;;;2.85;100.00
29903;BME280;30288;50.514;9.678;2024-03-17T00:56:31;99487.94;;;2.89;100.00
29903;BME280;30288;50.514;9.678;2024-03-17T00:58:33;99491.13;;;2.79;100.00
29903;BME280;30288;50.514;9.678;2024-03-17T01:00:40;99493.84;;;2.95;100.00
29903;BME280;30288;50.514;9.678;2024-03-17T01:02:42;99492.59;;;2.68;100.00
29903;BME280;30288;50.514;9.678;2024-03-17T01:04:48;99490.69;;;2.51;100.00
29903;BME280;30288;50.514;9.678;2024-03-17T01:06:50;99490.63;;;2.48;100.00
29903;BME280;30288;50.514;9.678;2024-03-17T01:08:54;99492.91;;;2.38;100.00
29903;BME280;30288;50.514;9.678;2024-03-17T01:10:58;99490.28;;;2.27;100.00
29903;BME280;30288;50.514;9.678;2024-03-17T01:13:05;99487.63;;;2.19;100.00
29903;BME280;30288;50.514;9.678;2024-03-17T01:15:09;99485.31;;;2.27;100.00
29903;BME280;30288;50.514;9.678;2024-03-17T01:17:16;99481.81;;;2.19;100.00
29903;BME280;30288;50.514;9.678;2024-03-17T01:19:23;99485.94;;;2.17;100.00
29903;BME280;30288;50.514;9.678;2024-03-17T01:21:28;99487.44;;;2.07;100.00
29903;BME280;30288;50.514;9.678;2024-03-17T01:23:29;99481.25;;;2.34;100.00
29903;BME280;30288;50.514;9.678;2024-03-17T01:25:34;99477.03;;;2.30;100.00
29903;BME280;30288;50.514;9.678;2024-03-17T01:27:43;99470.28;;;2.21;100.00
29903;BME280;30288;50.514;9.678;2024-03-17T01:29:48;99469.31;;;2.14;100.00
29903;BME280;30288;50.514;9.678;2024-03-17T01:31:49;99467.69;;;2.15;100.00
29903;BME280;30288;50.514;9.678;2024-03-17T01:33:56;99465.97;;;2.11;100.00
29903;BME280;30288;50.514;9.678;2024-03-17T01:35:58;99461.63;;;2.01;100.00
29903;BME280;30288;50.514;9.678;2024-03-17T01:38:03;99463.84;;;1.86;100.00
29903;BME280;30288;50.514;9.678;2024-03-17T01:40:07;99466.09;;;1.73;100.00
29903;BME280;30288;50.514;9.678;2024-03-17T01:42:12;99456.97;;;1.71;100.00
29903;BME280;30288;50.514;9.678;2024-03-17T01:44:23;99446.28;;;1.75;100.00
29903;BME280;30288;50.514;9.678;2024-03-17T01:46:27;99445.81;;;1.94;100.00
29903;BME280;30288;50.514;9.678;2024-03-17T01:48:30;99446.88;;;2.10;100.00
29903;BME280;30288;50.514;9.678;2024-03-17T01:50:38;99443.53;;;2.06;100.00
29903;BME280;30288;50.514;9.678;2024-03-17T01:52:40;99436.78;;;2.01;100.00
29903;BME280;30288;50.514;9.678;2024-03-17T01:54:44;99429.34;;;1.99;100.00
29903;BME280;30288;50.514;9.678;2024-03-17T01:56:48;99428.25;;;1.87;100.00
29903;BME280;30288;50.514;9.678;2024-03-17T01:58:52;99426.78;;;1.95;100.00
29903;BME280;30288;50.514;9.678;2024-03-17T02:00:54;99428.41;;;1.96;100.00
29903;BME280;30288;50.514;9.678;2024-03-17T02:02:59;99423.09;;;1.74;100.00
29903;BME280;30288;50.514;9.678;2024-03-17T02:05:02;99422.28;;;1.75;100.00
29903;BME280;30288;50.514;9.678;2024-03-17T02:07:10;99416.75;;;1.92;100.00
29903;BME280;30288;50.514;9.678;2024-03-17T02:09:12;99412.84;;;2.03;100.00
29903;BME280;30288;50.514;9.678;2024-03-17T02:11:27;99416.59;;;1.83;100.00
29903;BME280;30288;50.514;9.678;2024-03-17T02:13:30;99422.97;;;1.68;100.00
29903;BME280;30288;50.514;9.678;2024-03-17T02:15:34;99422.63;;;1.50;100.00
29903;BME280;30288;50.514;9.678;2024-03-17T02:17:38;99418.63;;;1.58;100.00
29903;BME280;30288;50.514;9.678;2024-03-17T02:19:43;99413.00;;;1.65;100.00
29903;BME280;30288;50.514;9.678;2024-03-17T02:21:46;99412.00;;;1.56;100.00
29903;BME280;30288;50.514;9.678;2024-03-17T02:23:53;99412.56;;;1.44;100.00
29903;BME280;30288;50.514;9.678;2024-03-17T02:25:54;99412.41;;;1.35;100.00
29903;BME280;30288;50.514;9.678;2024-03-17T02:28:01;99411.28;;;1.21;100.00
29903;BME280;30288;50.514;9.678;2024-03-17T02:30:04;99405.72;;;1.31;100.00
29903;BME280;30288;50.514;9.678;2024-03-17T02:32:10;99412.44;;;1.38;100.00
29903;BME280;30288;50.514;9.678;2024-03-17T02:34:12;99410.72;;;1.34;100.00
29903;BME280;30288;50.514;9.678;2024-03-17T02:36:16;99415.75;;;1.37;100.00
29903;BME280;30288;50.514;9.678;2024-03-17T02:38:19;99414.75;;;1.29;100.00
29903;BME280;30288;50.514;9.678;2024-03-17T02:40:46;99414.13;;;1.39;100.00
29903;BME280;30288;50.514;9.678;2024-03-17T02:42:48;99406.41;;;1.25;100.00
29903;BME280;30288;50.514;9.678;2024-03-17T02:44:52;99410.34;;;1.16;100.00
29903;BME280;30288;50.514;9.678;2024-03-17T02:46:57;99398.72;;;1.12;100.00
29903;BME280;30288;50.514;9.678;2024-03-17T02:49:05;99398.75;;;1.15;100.00
29903;BME280;30288;50.514;9.678;2024-03-17T02:51:17;99404.31;;;1.03;100.00
29903;BME280;30288;50.514;9.678;2024-03-17T02:53:22;99403.91;;;1.22;100.00
29903;BME280;30288;50.514;9.678;2024-03-17T02:55:27;99413.06;;;1.26;100.00
29903;BME280;30288;50.514;9.678;2024-03-17T02:57:34;99412.16;;;1.23;100.00
29903;BME280;30288;50.514;9.678;2024-03-17T02:59:39;99406.47;;;1.27;100.00
29903;BME280;30288;50.514;9.678;2024-03-17T03:01:44;99403.72;;;1.15;100.00
29903;BME280;30288;50.514;9.678;2024-03-17T03:03:48;99406.81;;;1.05;100.00
29903;BME280;30288;50.514;9.678;2024-03-17T03:05:53;99399.94;;;0.92;100.00
29903;BME280;30288;50.514;9.678;2024-03-17T03:07:58;99407.91;;;0.78;100.00
29903;BME280;30288;50.514;9.678;2024-03-17T03:10:03;99413.84;;;0.85;100.00
29903;BME280;30288;50.514;9.678;2024-03-17T03:12:08;99411.53;;;0.93;100.00
29903;BME280;30288;50.514;9.678;2024-03-17T03:14:15;99411.78;;;1.05;100.00
29903;BME280;30288;50.514;9.678;2024-03-17T03:16:20;99418.16;;;0.94;100.00
29903;BME280;30288;50.514;9.678;2024-03-17T03:18:27;99409.78;;;0.88;100.00
29903;BME280;30288;50.514;9.678;2024-03-17T03:20:31;99412.94;;;0.81;100.00
29903;BME280;30288;50.514;9.678;2024-03-17T03:22:35;99409.59;;;0.79;100.00
29903;BME280;30288;50.514;9.678;2024-03-17T03:24:37;99409.50;;;0.76;100.00
29903;BME280;30288;50.514;9.678;2024-03-17T03:26:41;99410.25;;;0.71;100.00
29903;BME280;30288;50.514;9.678;2024-03-17T03:28:43;99405.84;;;0.59;100.00
29903;BME280;30288;50.514;9.678;2024-03-17T03:30:49;99397.53;;;0.57;100.00
29903;BME280;30288;50.514;9.678;2024-03-17T03:32:54;99403.50;;;0.65;100.00
29903;BME280;30288;50.514;9.678;2024-03-17T03:34:58;99410.78;;;0.59;100.00
29903;BME280;30288;50.514;9.678;2024-03-17T03:37:05;99397.75;;;0.66;100.00
29903;BME280;30288;50.514;9.678;2024-03-17T03:39:11;99396.72;;;0.57;100.00
29903;BME280;30288;50.514;9.678;2024-03-17T03:41:15;99398.94;;;0.46;100.00
29903;BME280;30288;50.514;9.678;2024-03-17T03:43:20;99403.09;;;0.49;100.00
29903;BME280;30288;50.514;9.678;2024-03-17T03:45:24;99401.31;;;0.43;100.00
29903;BME280;30288;50.514;9.678;2024-03-17T03:47:35;99402.34;;;0.51;100.00
29903;BME280;30288;50.514;9.678;2024-03-17T03:49:39;99410.59;;;0.50;100.00
29903;BME280;30288;50.514;9.678;2024-03-17T03:51:45;99404.16;;;0.58;100.00
29903;BME280;30288;50.514;9.678;2024-03-17T03:53:51;99407.44;;;0.57;100.00
29903;BME280;30288;50.514;9.678;2024-03-17T03:55:52;99410.59;;;0.50;100.00
29903;BME280;30288;50.514;9.678;2024-03-17T03:57:59;99408.47;;;0.65;100.00
29903;BME280;30288;50.514;9.678;2024-03-17T04:00:06;99405.88;;;0.62;100.00
29903;BME280;30288;50.514;9.678;2024-03-17T04:02:13;99407.38;;;0.54;100.00
29903;BME280;30288;50.514;9.678;2024-03-17T04:04:20;99403.81;;;0.43;100.00
29903;BME280;30288;50.514;9.678;2024-03-17T04:06:24;99410.44;;;0.44;100.00
29903;BME280;30288;50.514;9.678;2024-03-17T04:08:29;99406.16;;;0.37;100.00
29903;BME280;30288;50.514;9.678;2024-03-17T04:10:33;99406.91;;;0.33;100.00
29903;BME280;30288;50.514;9.678;2024-03-17T04:12:37;99405.53;;;0.46;100.00
29903;BME280;30288;50.514;9.678;2024-03-17T04:14:41;99402.47;;;0.57;100.00
29903;BME280;30288;50.514;9.678;2024-03-17T04:16:46;99404.03;;;0.52;100.00
29903;BME280;30288;50.514;9.678;2024-03-17T04:18:51;99404.69;;;0.45;100.00
29903;BME280;30288;50.514;9.678;2024-03-17T04:21:02;99397.25;;;0.45;100.00
29903;BME280;30288;50.514;9.678;2024-03-17T04:23:06;99408.28;;;0.22;100.00
29903;BME280;30288;50.514;9.678;2024-03-17T04:25:12;99411.38;;;0.15;100.00
29903;BME280;30288;50.514;9.678;2024-03-17T04:27:14;99400.41;;;0.38;100.00
29903;BME280;30288;50.514;9.678;2024-03-17T04:29:20;99408.84;;;0.46;100.00
29903;BME280;30288;50.514;9.678;2024-03-17T04:31:24;99407.09;;;0.42;100.00
29903;BME280;30288;50.514;9.678;2024-03-17T04:33:32;99410.59;;;0.50;100.00
29903;BME280;30288;50.514;9.678;2024-03-17T04:35:37;99406.47;;;0.51;100.00
29903;BME280;30288;50.514;9.678;2024-03-17T04:37:48;99412.13;;;0.45;100.00
29903;BME280;30288;50.514;9.678;2024-03-17T04:39:56;99403.31;;;0.56;100.00
29903;BME280;30288;50.514;9.678;2024-03-17T04:42:11;99417.28;;;0.54;100.00
29903;BME280;30288;50.514;9.678;2024-03-17T04:44:18;99421.97;;;0.42;100.00
29903;BME280;30288;50.514;9.678;2024-03-17T04:46:22;99419.81;;;0.57;100.00
29903;BME280;30288;50.514;9.678;2024-03-17T04:48:27;99423.72;;;0.46;100.00
29903;BME280;30288;50.514;9.678;2024-03-17T04:50:31;99433.53;;;0.43;100.00
29903;BME280;30288;50.514;9.678;2024-03-17T04:52:36;99420.50;;;0.50;100.00
29903;BME280;30288;50.514;9.678;2024-03-17T04:54:43;99435.50;;;0.56;100.00
29903;BME280;30288;50.514;9.678;2024-03-17T04:56:44;99443.22;;;0.34;100.00
29903;BME280;30288;50.514;9.678;2024-03-17T04:58:49;99445.00;;;0.38;100.00
29903;BME280;30288;50.514;9.678;2024-03-17T05:00:54;99447.59;;;0.44;100.00
29903;BME280;30288;50.514;9.678;2024-03-17T05:02:58;99448.50;;;0.46;100.00
29903;BME280;30288;50.514;9.678;2024-03-17T05:05:03;99446.75;;;0.42;100.00
29903;BME280;30288;50.514;9.678;2024-03-17T05:07:09;99446.59;;;0.36;100.00
29903;BME280;30288;50.514;9.678;2024-03-17T05:09:12;99449.66;;;0.26;100.00
29903;BME280;30288;50.514;9.678;2024-03-17T05:11:20;99446.44;;;0.30;100.00
29903;BME280;30288;50.514;9.678;2024-03-17T05:13:26;99451.38;;;0.30;100.00
29903;BME280;30288;50.514;9.678;2024-03-17T05:15:29;99446.53;;;0.33;100.00
29903;BME280;30288;50.514;9.678;2024-03-17T05:17:38;99456.34;;;0.30;100.00
29903;BME280;30288;50.514;9.678;2024-03-17T05:19:42;99463.88;;;0.33;100.00
29903;BME280;30288;50.514;9.678;2024-03-17T05:21:47;99473.41;;;0.52;100.00
29903;BME280;30288;50.514;9.678;2024-03-17T05:23:52;99470.06;;;0.50;100.00
29903;BME280;30288;50.514;9.678;2024-03-17T05:25:58;99473.41;;;0.52;100.00
29903;BME280;30288;50.514;9.678;2024-03-17T05:28:09;99470.28;;;0.59;100.00
29903;BME280;30288;50.514;9.678;2024-03-17T05:30:16;99476.75;;;0.54;100.00
29903;BME280;30288;50.514;9.678;2024-03-17T05:32:26;99468.59;;;0.58;100.00
29903;BME280;30288;50.514;9.678;2024-03-17T05:34:32;99473.97;;;0.76;100.00
29903;BME280;30288;50.514;9.678;2024-03-17T05:36:35;99468.47;;;0.88;100.00
29903;BME280;30288;50.514;9.678;2024-03-17T05:38:39;99465.28;;;0.94;100.00
29903;BME280;30288;50.514;9.678;2024-03-17T05:40:55;99469.25;;;0.85;100.00
29903;BME280;30288;50.514;9.678;2024-03-17T05:43:05;99470.84;;;0.83;100.00
29903;BME280;30288;50.514;9.678;2024-03-17T05:45:12;99464.53;;;0.98;100.00
29903;BME280;30288;50.514;9.678;2024-03-17T05:47:18;99466.47;;;1.11;100.00
29903;BME280;30288;50.514;9.678;2024-03-17T05:49:20;99466.66;;;1.20;100.00
29903;BME280;30288;50.514;9.678;2024-03-17T05:51:29;99467.59;;;1.23;100.00
29903;BME280;30288;50.514;9.678;2024-03-17T05:53:42;99466.25;;;1.39;100.00
29903;BME280;30288;50.514;9.678;2024-03-17T05:55:50;99463.72;;;1.36;100.00
29903;BME280;30288;50.514;9.678;2024-03-17T05:58:01;99457.94;;;1.37;100.00
29903;BME280;30288;50.514;9.678;2024-03-17T06:00:11;99458.78;;;1.39;100.00
29903;BME280;30288;50.514;9.678;2024-03-17T06:02:16;99452.06;;;1.32;100.00
29903;BME280;30288;50.514;9.678;2024-03-17T06:04:21;99454.44;;;1.27;100.00
29903;BME280;30288;50.514;9.678;2024-03-17T06:06:25;99456.69;;;1.17;100.00
29903;BME280;30288;50.514;9.678;2024-03-17T06:08:30;99459.16;;;1.17;100.00
29903;BME280;30288;50.514;9.678;2024-03-17T06:10:38;99452.06;;;1.32;100.00
29903;BME280;30288;50.514;9.678;2024-03-17T06:12:47;99447.78;;;1.26;100.00
29903;BME280;30288;50.514;9.678;2024-03-17T06:14:50;99444.72;;;1.38;100.00
29903;BME280;30288;50.514;9.678;2024-03-17T06:16:57;99447.88;;;1.31;100.00
29903;BME280;30288;50.514;9.678;2024-03-17T06:19:01;99451.97;;;1.29;100.00
29903;BME280;30288;50.514;9.678;2024-03-17T06:21:06;99453.59;;;1.27;100.00
29903;BME280;30288;50.514;9.678;2024-03-17T06:23:11;99447.94;;;1.34;100.00
29903;BME280;30288;50.514;9.678;2024-03-17T06:25:14;99445.28;;;1.25;100.00
29903;BME280;30288;50.514;9.678;2024-03-17T06:27:19;99450.31;;;1.28;100.00
29903;BME280;30288;50.514;9.678;2024-03-17T06:29:22;99442.88;;;1.28;100.00
29903;BME280;30288;50.514;9.678;2024-03-17T06:31:26;99439.47;;;1.24;100.00
29903;BME280;30288;50.514;9.678;2024-03-17T06:33:34;99447.13;;;1.35;100.00
29903;BME280;30288;50.514;9.678;2024-03-17T06:35:40;99449.06;;;1.48;100.00
29903;BME280;30288;50.514;9.678;2024-03-17T06:37:45;99440.22;;;1.62;100.00
29903;BME280;30288;50.514;9.678;2024-03-17T06:39:50;99441.22;;;1.70;100.00
29903;BME280;30288;50.514;9.678;2024-03-17T06:41:54;99438.03;;;1.77;100.00
29903;BME280;30288;50.514;9.678;2024-03-17T06:43:59;99434.88;;;1.85;100.00
29903;BME280;30288;50.514;9.678;2024-03-17T06:46:04;99435.72;;;1.87;100.00
29903;BME280;30288;50.514;9.678;2024-03-17T06:48:11;99439.13;;;1.92;100.00
29903;BME280;30288;50.514;9.678;2024-03-17T06:50:21;99441.84;;;2.04;100.00
29903;BME280;30288;50.514;9.678;2024-03-17T06:52:29;99439.59;;;2.17;100.00
29903;BME280;30288;50.514;9.678;2024-03-17T06:54:34;99437.25;;;2.28;100.00
29903;BME280;30288;50.514;9.678;2024-03-17T06:56:39;99437.50;;;2.43;100.00
29903;BME280;30288;50.514;9.678;2024-03-17T06:58:46;99441.25;;;2.70;100.00
29903;BME280;30288;50.514;9.678;2024-03-17T07:00:54;99427.38;;;2.87;100.00
29903;BME280;30288;50.514;9.678;2024-03-17T07:02:57;99429.22;;;2.98;100.00
29903;BME280;30288;50.514;9.678;2024-03-17T07:05:03;99432.78;;;3.17;100.00
29903;BME280;30288;50.514;9.678;2024-03-17T07:07:10;99427.75;;;3.13;100.00
29903;BME280;30288;50.514;9.678;2024-03-17T07:09:16;99428.59;;;3.16;100.00
29903;BME280;30288;50.514;9.678;2024-03-17T07:11:22;99437.09;;;3.33;100.00
29903;BME280;30288;50.514;9.678;2024-03-17T07:13:29;99437.22;;;3.42;100.00
29903;BME280;30288;50.514;9.678;2024-03-17T07:15:34;99429.88;;;3.53;100.00
29903;BME280;30288;50.514;9.678;2024-03-17T07:17:50;99430.81;;;3.63;100.00
29903;BME280;30288;50.514;9.678;2024-03-17T07:19:55;99419.25;;;3.68;100.00
29903;BME280;30288;50.514;9.678;2024-03-17T07:22:01;99417.63;;;3.71;100.00
29903;BME280;30288;50.514;9.678;2024-03-17T07:24:09;99427.69;;;3.79;100.00
29903;BME280;30288;50.514;9.678;2024-03-17T07:26:15;99432.69;;;3.82;100.00
29903;BME280;30288;50.514;9.678;2024-03-17T07:28:24;99434.53;;;3.98;100.00
29903;BME280;30288;50.514;9.678;2024-03-17T07:30:29;99434.59;;;4.07;100.00
29903;BME280;30288;50.514;9.678;2024-03-17T07:32:34;99442.97;;;4.15;100.00
29903;BME280;30288;50.514;9.678;2024-03-17T07:34:35;99445.59;;;4.27;100.00
29903;BME280;30288;50.514;9.678;2024-03-17T07:36:40;99441.44;;;4.29;100.00
29903;BME280;30288;50.514;9.678;2024-03-17T07:38:44;99443.91;;;4.28;100.00
29903;BME280;30288;50.514;9.678;2024-03-17T07:40:59;99436.59;;;4.45;100.00
29903;BME280;30288;50.514;9.678;2024-03-17T07:43:04;99440.78;;;4.50;100.00
29903;BME280;30288;50.514;9.678;2024-03-17T07:45:06;99427.50;;;4.54;100.00
29903;BME280;30288;50.514;9.678;2024-03-17T07:47:12;99425.16;;;4.74;100.00
29903;BME280;30288;50.514;9.678;2024-03-17T07:49:17;99431.03;;;4.83;100.00
29903;BME280;30288;50.514;9.678;2024-03-17T07:51:22;99428.66;;;5.03;100.00
29903;BME280;30288;50.514;9.678;2024-03-17T07:53:26;99432.06;;;5.17;100.00
29903;BME280;30288;50.514;9.678;2024-03-17T07:55:28;99425.50;;;5.41;100.00
29903;BME280;30288;50.514;9.678;2024-03-17T07:57:36;99423.91;;;5.58;100.00
29903;BME280;30288;50.514;9.678;2024-03-17T07:59:40;99418.94;;;5.76;100.00
29903;BME280;30288;50.514;9.678;2024-03-17T08:01:47;99422.34;;;5.93;100.00
29903;BME280;30288;50.514;9.678;2024-03-17T08:03:49;99413.22;;;6.24;100.00
29903;BME280;30288;50.514;9.678;2024-03-17T08:05:57;99416.53;;;6.34;100.00
29903;BME280;30288;50.514;9.678;2024-03-17T08:07:59;99418.22;;;6.48;100.00
29903;BME280;30288;50.514;9.678;2024-03-17T08:10:04;99410.69;;;6.59;100.00
29903;BME280;30288;50.514;9.678;2024-03-17T08:12:09;99401.47;;;6.70;100.00
29903;BME280;30288;50.514;9.678;2024-03-17T08:14:16;99408.16;;;6.80;100.00
29903;BME280;30288;50.514;9.678;2024-03-17T08:16:20;99400.63;;;6.89;100.00
29903;BME280;30288;50.514;9.678;2024-03-17T08:18:23;99405.59;;;7.01;100.00
29903;BME280;30288;50.514;9.678;2024-03-17T08:20:28;99408.88;;;7.19;100.00
29903;BME280;30288;50.514;9.678;2024-03-17T08:22:32;99407.19;;;7.22;100.00
29903;BME280;30288;50.514;9.678;2024-03-17T08:24:37;99415.59;;;7.11;100.00
29903;BME280;30288;50.514;9.678;2024-03-17T08:26:41;99408.84;;;7.31;100.00
29903;BME280;30288;50.514;9.678;2024-03-17T08:28:47;99403.69;;;7.64;100.00
29903;BME280;30288;50.514;9.678;2024-03-17T08:30:56;99405.28;;;7.77;100.00
29903;BME280;30288;50.514;9.678;2024-03-17T08:33:01;99401.81;;;7.95;100.00
29903;BME280;30288;50.514;9.678;2024-03-17T08:35:07;99394.94;;;8.20;100.00
29903;BME280;30288;50.514;9.678;2024-03-17T08:37:12;99395.63;;;8.43;100.00
29903;BME280;30288;50.514;9.678;2024-03-17T08:39:16;99392.19;;;8.53;100.00
29903;BME280;30288;50.514;9.678;2024-03-17T08:41:20;99387.06;;;8.61;100.00
29903;BME280;30288;50.514;9.678;2024-03-17T08:43:24;99379.53;;;8.62;100.00
29903;BME280;30288;50.514;9.678;2024-03-17T08:45:28;99385.16;;;8.84;100.00
29903;BME280;30288;50.514;9.678;2024-03-17T08:47:35;99383.28;;;9.03;100.00
29903;BME280;30288;50.514;9.678;2024-03-17T08:49:39;99384.16;;;8.99;100.00
29903;BME280;30288;50.514;9.678;2024-03-17T08:51:43;99386.56;;;9.11;100.00
29903;BME280;30288;50.514;9.678;2024-03-17T08:53:47;99384.81;;;9.16;100.00
29903;BME280;30288;50.514;9.678;2024-03-17T08:55:52;99376.16;;;9.40;100.00
29903;BME280;30288;50.514;9.678;2024-03-17T08:57:59;99384.16;;;9.68;100.00
29903;BME280;30288;50.514;9.678;2024-03-17T09:00:06;99382.13;;;9.91;100.00
29903;BME280;30288;50.514;9.678;2024-03-17T09:02:13;99378.44;;;10.13;100.00
29903;BME280;30288;50.514;9.678;2024-03-17T09:04:20;99371.00;;;10.07;100.00
29903;BME280;30288;50.514;9.678;2024-03-17T09:06:22;99372.06;;;9.91;100.00
29903;BME280;30288;50.514;9.678;2024-03-17T09:08:28;99372.56;;;10.14;100.00
29903;BME280;30288;50.514;9.678;2024-03-17T09:10:39;99362.84;;;10.45;100.00
29903;BME280;30288;50.514;9.678;2024-03-17T09:12:43;99372.44;;;10.22;100.00
29903;BME280;30288;50.514;9.678;2024-03-17T09:14:48;99374.63;;;10.43;100.00
29903;BME280;30288;50.514;9.678;2024-03-17T09:16:52;99366.81;;;10.57;100.00
29903;BME280;30288;50.514;9.678;2024-03-17T09:18:56;99358.31;;;10.64;100.00
29903;BME280;30288;50.514;9.678;2024-03-17T09:21:05;99366.31;;;10.84;100.00
29903;BME280;30288;50.514;9.678;2024-03-17T09:23:08;99369.72;;;10.83;100.00
29903;BME280;30288;50.514;9.678;2024-03-17T09:25:12;99357.88;;;10.88;100.00
29903;BME280;30288;50.514;9.678;2024-03-17T09:27:16;99368.47;;;11.04;100.00
29903;BME280;30288;50.514;9.678;2024-03-17T09:29:24;99363.88;;;11.22;100.00
29903;BME280;30288;50.514;9.678;2024-03-17T09:31:28;99356.72;;;11.43;100.00
29903;BME280;30288;50.514;9.678;2024-03-17T09:33:30;99349.69;;;11.58;100.00
29903;BME280;30288;50.514;9.678;2024-03-17T09:35:34;99352.81;;;11.68;100.00
29903;BME280;30288;50.514;9.678;2024-03-17T09:37:38;99356.19;;;11.67;100.00
29903;BME280;30288;50.514;9.678;2024-03-17T09:39:46;99354.94;;;11.88;100.00
29903;BME280;30288;50.514;9.678;2024-03-17T09:41:52;99350.63;;;11.91;100.00
29903;BME280;30288;50.514;9.678;2024-03-17T09:43:57;99346.56;;;11.84;100.00
29903;BME280;30288;50.514;9.678;2024-03-17T09:46:03;99355.09;;;11.80;100.00
29903;BME280;30288;50.514;9.678;2024-03-17T09:48:14;99344.72;;;11.92;100.00
29903;BME280;30288;50.514;9.678;2024-03-17T09:50:18;99344.69;;;12.27;100.00
29903;BME280;30288;50.514;9.678;2024-03-17T09:52:25;99353.53;;;12.11;100.00
29903;BME280;30288;50.514;9.678;2024-03-17T09:54:32;99345.44;;;11.97;100.00
29903;BME280;30288;50.514;9.678;2024-03-17T09:56:34;99351.84;;;12.10;100.00
29903;BME280;30288;50.514;9.678;2024-03-17T09:58:38;99348.75;;;11.99;100.00
29903;BME280;30288;50.514;9.678;2024-03-17T10:00:41;99346.53;;;11.49;100.00
29903;BME280;30288;50.514;9.678;2024-03-17T10:02:47;99351.16;;;12.04;100.00
29903;BME280;30288;50.514;9.678;2024-03-17T10:04:51;99334.81;;;12.18;100.00
29903;BME280;30288;50.514;9.678;2024-03-17T10:06:53;99333.75;;;12.27;100.00
29903;BME280;30288;50.514;9.678;2024-03-17T10:08:59;99336.28;;;12.59;100.00
29903;BME280;30288;50.514;9.678;2024-03-17T10:11:07;99334.34;;;12.69;100.00
29903;BME280;30288;50.514;9.678;2024-03-17T10:13:12;99338.00;;;12.88;100.00
29903;BME280;30288;50.514;9.678;2024-03-17T10:15:18;99332.69;;;12.97;100.00
29903;BME280;30288;50.514;9.678;2024-03-17T10:17:29;99335.16;;;13.00;100.00
29903;BME280;30288;50.514;9.678;2024-03-17T10:19:36;99336.38;;;13.18;100.00
29903;BME280;30288;50.514;9.678;2024-03-17T10:21:43;99333.63;;;13.26;100.00
29903;BME280;30288;50.514;9.678;2024-03-17T10:24:06;99332.06;;;12.60;100.00
29903;BME280;30288;50.514;9.678;2024-03-17T10:26:15;99335.03;;;12.74;100.00
29903;BME280;30288;50.514;9.678;2024-03-17T10:28:20;99341.81;;;13.03;100.00
29903;BME280;30288;50.514;9.678;2024-03-17T10:30:25;99342.09;;;12.94;100.00
29903;BME280;30288;50.514;9.678;2024-03-17T10:32:31;99330.97;;;12.99;100.00
29903;BME280;30288;50.514;9.678;2024-03-17T10:34:33;99328.47;;;13.29;100.00
29903;BME280;30288;50.514;9.678;2024-03-17T10:36:38;99323.59;;;13.23;100.00
29903;BME280;30288;50.514;9.678;2024-03-17T10:38:51;99324.69;;;12.83;100.00
29903;BME280;30288;50.514;9.678;2024-03-17T10:40:57;99334.78;;;12.83;100.00
29903;BME280;30288;50.514;9.678;2024-03-17T10:43:05;99329.97;;;13.05;100.00
29903;BME280;30288;50.514;9.678;2024-03-17T10:45:09;99324.34;;;12.95;100.00
29903;BME280;30288;50.514;9.678;2024-03-17T10:47:23;99327.59;;;13.00;100.00
29903;BME280;30288;50.514;9.678;2024-03-17T10:49:30;99321.72;;;12.98;100.00
29903;BME280;30288;50.514;9.678;2024-03-17T10:51:34;99309.09;;;12.98;100.00
29903;BME280;30288;50.514;9.678;2024-03-17T10:53:39;99311.91;;;13.19;100.00
29903;BME280;30288;50.514;9.678;2024-03-17T10:55:47;99320.09;;;13.27;100.00
29903;BME280;30288;50.514;9.678;2024-03-17T10:57:55;99302.16;;;13.62;100.00
29903;BME280;30288;50.514;9.678;2024-03-17T11:00:05;99302.94;;;13.90;100.00
29903;BME280;30288;50.514;9.678;2024-03-17T11:02:21;99299.78;;;14.35;100.00